sensor_id;sensor_type;location;lat;lon;timestamp;P1;durP1;ratioP1;P2;durP2;ratioP2
53977;SDS011;39886;47.984;-1.586;2023-04-01T00:02:10;3.28;;;1.50;;
53977;SDS011;39886;47.984;-1.586;2023-04-01T00:04:36;3.25;;;1.58;;
53977;SDS011;39886;47.984;-1.586;2023-04-01T00:07:02;2.75;;;1.27;;
53977;SDS011;39886;47.984;-1.586;2023-04-01T00:09:28;3.15;;;1.30;;
53977;SDS011;39886;47.984;-1.586;2023-04-01T00:11:53;4.18;;;1.42;;
53977;SDS011;39886;47.984;-1.586;2023-04-01T00:14:19;3.70;;;1.48;;
53977;SDS011;39886;47.984;-1.586;2023-04-01T00:16:45;3.42;;;1.42;;
53977;SDS011;39886;47.984;-1.586;2023-04-01T00:19:11;2.88;;;1.30;;
53977;SDS011;39886;47.984;-1.586;2023-04-01T00:21:36;3.05;;;1.60;;
53977;SDS011;39886;47.984;-1.586;2023-04-01T00:24:02;4.03;;;1.35;;
53977;SDS011;39886;47.984;-1.586;2023-04-01T00:26:28;2.53;;;1.27;;
53977;SDS011;39886;47.984;-1.586;2023-04-01T00:28:54;3.08;;;1.20;;
53977;SDS011;39886;47.984;-1.586;2023-04-01T00:31:20;4.38;;;1.75;;
53977;SDS011;39886;47.984;-1.586;2023-04-01T00:33:45;1.67;;;1.30;;
53977;SDS011;39886;47.984;-1.586;2023-04-01T00:36:15;4.28;;;1.63;;
53977;SDS011;39886;47.984;-1.586;2023-04-01T00:38:43;3.80;;;1.30;;
53977;SDS011;39886;47.984;-1.586;2023-04-01T00:41:11;5.68;;;1.80;;
53977;SDS011;39886;47.984;-1.586;2023-04-01T00:43:43;3.70;;;1.50;;
53977;SDS011;39886;47.984;-1.586;2023-04-01T00:46:11;3.95;;;1.58;;
53977;SDS011;39886;47.984;-1.586;2023-04-01T00:48:38;3.22;;;1.23;;
53977;SDS011;39886;47.984;-1.586;2023-04-01T00:51:07;2.78;;;1.48;;
53977;SDS011;39886;47.984;-1.586;2023-04-01T00:53:40;1.90;;;1.17;;
53977;SDS011;39886;47.984;-1.586;2023-04-01T00:59:02;1.83;;;1.23;;
53977;SDS011;39886;47.984;-1.586;2023-04-01T01:01:33;3.97;;;1.30;;
53977;SDS011;39886;47.984;-1.586;2023-04-01T01:04:00;2.15;;;1.10;;
53977;SDS011;39886;47.984;-1.586;2023-04-01T01:17:26;4.07;;;1.45;;
53977;SDS011;39886;47.984;-1.586;2023-04-01T01:31:19;4.03;;;1.30;;
53977;SDS011;39886;47.984;-1.586;2023-04-01T01:36:40;2.97;;;1.40;;
53977;SDS011;39886;47.984;-1.586;2023-04-01T01:39:10;4.30;;;1.52;;
53977;SDS011;39886;47.984;-1.586;2023-04-01T01:41:39;3.15;;;1.67;;
53977;SDS011;39886;47.984;-1.586;2023-04-01T01:44:08;4.07;;;1.40;;
53977;SDS011;39886;47.984;-1.586;2023-04-01T01:46:37;3.78;;;1.58;;
53977;SDS011;39886;47.984;-1.586;2023-04-01T01:49:04;2.75;;;1.30;;
53977;SDS011;39886;47.984;-1.586;2023-04-01T01:51:32;3.17;;;1.20;;
53977;SDS011;39886;47.984;-1.586;2023-04-01T01:53:59;3.83;;;1.23;;
53977;SDS011;39886;47.984;-1.586;2023-04-01T01:56:26;2.88;;;1.48;;
53977;SDS011;39886;47.984;-1.586;2023-04-01T01:58:56;3.83;;;1.30;;
53977;SDS011;39886;47.984;-1.586;2023-04-01T02:01:29;4.00;;;1.30;;
53977;SDS011;39886;47.984;-1.586;2023-04-01T02:03:58;3.45;;;1.35;;
53977;SDS011;39886;47.984;-1.586;2023-04-01T02:06:26;2.95;;;1.35;;
53977;SDS011;39886;47.984;-1.586;2023-04-01T02:09:03;3.72;;;1.30;;
53977;SDS011;39886;47.984;-1.586;2023-04-01T02:11:43;2.20;;;1.00;;
53977;SDS011;39886;47.984;-1.586;2023-04-01T02:14:15;2.58;;;1.20;;
53977;SDS011;39886;47.984;-1.586;2023-04-01T02:16:44;3.95;;;1.38;;
53977;SDS011;39886;47.984;-1.586;2023-04-01T02:19:23;2.97;;;1.48;;
53977;SDS011;39886;47.984;-1.586;2023-04-01T02:21:58;2.58;;;1.20;;
53977;SDS011;39886;47.984;-1.586;2023-04-01T02:24:27;3.55;;;1.30;;
53977;SDS011;39886;47.984;-1.586;2023-04-01T02:26:55;3.65;;;1.60;;
53977;SDS011;39886;47.984;-1.586;2023-04-01T02:29:21;2.38;;;1.20;;
53977;SDS011;39886;47.984;-1.586;2023-04-01T02:31:50;3.15;;;1.17;;
53977;SDS011;39886;47.984;-1.586;2023-04-01T02:34:16;3.85;;;1.27;;
53977;SDS011;39886;47.984;-1.586;2023-04-01T02:36:43;2.40;;;1.40;;
53977;SDS011;39886;47.984;-1.586;2023-04-01T02:39:09;2.83;;;1.02;;
53977;SDS011;39886;47.984;-1.586;2023-04-01T02:41:39;1.48;;;1.10;;
53977;SDS011;39886;47.984;-1.586;2023-04-01T02:44:05;3.10;;;1.30;;
53977;SDS011;39886;47.984;-1.586;2023-04-01T02:46:32;2.72;;;1.42;;
53977;SDS011;39886;47.984;-1.586;2023-04-01T02:48:58;2.58;;;1.10;;
53977;SDS011;39886;47.984;-1.586;2023-04-01T02:51:25;3.03;;;1.38;;
53977;SDS011;39886;47.984;-1.586;2023-04-01T02:53:51;2.55;;;1.13;;
53977;SDS011;39886;47.984;-1.586;2023-04-01T02:56:16;2.45;;;1.17;;
53977;SDS011;39886;47.984;-1.586;2023-04-01T02:58:44;3.83;;;1.35;;
53977;SDS011;39886;47.984;-1.586;2023-04-01T03:01:10;3.58;;;1.10;;
53977;SDS011;39886;47.984;-1.586;2023-04-01T03:03:36;3.28;;;1.40;;
53977;SDS011;39886;47.984;-1.586;2023-04-01T03:06:09;2.72;;;1.42;;
53977;SDS011;39886;47.984;-1.586;2023-04-01T03:08:36;3.08;;;1.15;;
53977;SDS011;39886;47.984;-1.586;2023-04-01T03:11:02;2.67;;;1.10;;
53977;SDS011;39886;47.984;-1.586;2023-04-01T03:13:29;3.17;;;1.15;;
53977;SDS011;39886;47.984;-1.586;2023-04-01T03:15:54;3.47;;;1.40;;
53977;SDS011;39886;47.984;-1.586;2023-04-01T03:18:20;4.57;;;1.73;;
53977;SDS011;39886;47.984;-1.586;2023-04-01T03:20:46;2.45;;;1.27;;
53977;SDS011;39886;47.984;-1.586;2023-04-01T03:23:12;2.35;;;1.15;;
53977;SDS011;39886;47.984;-1.586;2023-04-01T03:25:38;4.30;;;1.52;;
53977;SDS011;39886;47.984;-1.586;2023-04-01T03:28:05;2.13;;;1.02;;
53977;SDS011;39886;47.984;-1.586;2023-04-01T03:30:30;2.70;;;1.10;;
53977;SDS011;39886;47.984;-1.586;2023-04-01T03:32:57;1.58;;;0.82;;
53977;SDS011;39886;47.984;-1.586;2023-04-01T03:35:24;1.55;;;0.95;;
53977;SDS011;39886;47.984;-1.586;2023-04-01T03:37:50;2.53;;;1.42;;
53977;SDS011;39886;47.984;-1.586;2023-04-01T03:40:16;3.92;;;1.25;;
53977;SDS011;39886;47.984;-1.586;2023-04-01T03:42:42;3.38;;;1.25;;
53977;SDS011;39886;47.984;-1.586;2023-04-01T03:45:08;2.78;;;1.40;;
53977;SDS011;39886;47.984;-1.586;2023-04-01T03:47:35;2.35;;;1.27;;
53977;SDS011;39886;47.984;-1.586;2023-04-01T03:50:00;3.33;;;1.13;;
53977;SDS011;39886;47.984;-1.586;2023-04-01T03:52:29;2.47;;;1.20;;
53977;SDS011;39886;47.984;-1.586;2023-04-01T03:54:55;2.47;;;1.10;;
53977;SDS011;39886;47.984;-1.586;2023-04-01T03:57:21;2.92;;;1.23;;
53977;SDS011;39886;47.984;-1.586;2023-04-01T03:59:47;3.00;;;1.17;;
53977;SDS011;39886;47.984;-1.586;2023-04-01T04:02:12;1.95;;;1.05;;
53977;SDS011;39886;47.984;-1.586;2023-04-01T04:04:38;4.30;;;1.30;;
53977;SDS011;39886;47.984;-1.586;2023-04-01T04:07:04;3.22;;;1.38;;
53977;SDS011;39886;47.984;-1.586;2023-04-01T04:09:30;2.60;;;1.13;;
53977;SDS011;39886;47.984;-1.586;2023-04-01T04:11:56;2.53;;;1.33;;
53977;SDS011;39886;47.984;-1.586;2023-04-01T04:14:22;1.98;;;1.08;;
53977;SDS011;39886;47.984;-1.586;2023-04-01T04:16:48;1.65;;;0.77;;
53977;SDS011;39886;47.984;-1.586;2023-04-01T04:19:14;3.35;;;1.42;;
53977;SDS011;39886;47.984;-1.586;2023-04-01T04:21:40;2.10;;;1.20;;
53977;SDS011;39886;47.984;-1.586;2023-04-01T04:24:07;2.33;;;1.30;;
53977;SDS011;39886;47.984;-1.586;2023-04-01T04:26:35;1.88;;;1.00;;
53977;SDS011;39886;47.984;-1.586;2023-04-01T04:29:01;2.78;;;1.42;;
53977;SDS011;39886;47.984;-1.586;2023-04-01T04:31:28;2.05;;;1.10;;
53977;SDS011;39886;47.984;-1.586;2023-04-01T04:33:53;2.33;;;1.10;;
53977;SDS011;39886;47.984;-1.586;2023-04-01T04:36:19;1.90;;;0.98;;
53977;SDS011;39886;47.984;-1.586;2023-04-01T04:38:46;2.53;;;1.08;;
53977;SDS011;39886;47.984;-1.586;2023-04-01T04:41:12;2.50;;;1.20;;
53977;SDS011;39886;47.984;-1.586;2023-04-01T04:43:40;2.35;;;1.27;;
53977;SDS011;39886;47.984;-1.586;2023-04-01T04:46:07;2.25;;;1.23;;
53977;SDS011;39886;47.984;-1.586;2023-04-01T04:48:33;1.77;;;1.05;;
53977;SDS011;39886;47.984;-1.586;2023-04-01T04:50:59;2.47;;;1.13;;
53977;SDS011;39886;47.984;-1.586;2023-04-01T04:53:25;2.83;;;1.27;;
53977;SDS011;39886;47.984;-1.586;2023-04-01T04:55:51;1.92;;;1.00;;
53977;SDS011;39886;47.984;-1.586;2023-04-01T04:58:17;1.77;;;0.90;;
53977;SDS011;39886;47.984;-1.586;2023-04-01T05:00:43;3.53;;;1.10;;
53977;SDS011;39886;47.984;-1.586;2023-04-01T05:03:10;2.38;;;1.10;;
53977;SDS011;39886;47.984;-1.586;2023-04-01T05:05:37;1.67;;;1.00;;
53977;SDS011;39886;47.984;-1.586;2023-04-01T05:08:03;3.05;;;1.25;;
53977;SDS011;39886;47.984;-1.586;2023-04-01T05:10:30;2.13;;;1.10;;
53977;SDS011;39886;47.984;-1.586;2023-04-01T05:12:57;1.90;;;1.08;;
53977;SDS011;39886;47.984;-1.586;2023-04-01T05:15:23;2.10;;;1.00;;
53977;SDS011;39886;47.984;-1.586;2023-04-01T05:17:49;2.47;;;1.10;;
53977;SDS011;39886;47.984;-1.586;2023-04-01T05:20:15;2.25;;;1.20;;
53977;SDS011;39886;47.984;-1.586;2023-04-01T05:22:41;1.92;;;1.25;;
53977;SDS011;39886;47.984;-1.586;2023-04-01T05:25:07;1.17;;;1.00;;
53977;SDS011;39886;47.984;-1.586;2023-04-01T05:27:34;2.45;;;1.10;;
53977;SDS011;39886;47.984;-1.586;2023-04-01T05:30:00;4.13;;;1.48;;
53977;SDS011;39886;47.984;-1.586;2023-04-01T05:32:26;2.97;;;1.40;;
53977;SDS011;39886;47.984;-1.586;2023-04-01T05:34:52;4.00;;;1.40;;
53977;SDS011;39886;47.984;-1.586;2023-04-01T05:37:18;2.00;;;1.00;;
53977;SDS011;39886;47.984;-1.586;2023-04-01T05:39:44;2.80;;;1.20;;
53977;SDS011;39886;47.984;-1.586;2023-04-01T05:42:10;3.53;;;1.40;;
53977;SDS011;39886;47.984;-1.586;2023-04-01T05:44:36;2.35;;;0.90;;
53977;SDS011;39886;47.984;-1.586;2023-04-01T05:47:03;2.17;;;1.17;;
53977;SDS011;39886;47.984;-1.586;2023-04-01T05:49:29;2.00;;;1.08;;
53977;SDS011;39886;47.984;-1.586;2023-04-01T05:51:55;2.15;;;1.30;;
53977;SDS011;39886;47.984;-1.586;2023-04-01T05:54:22;2.67;;;0.98;;
53977;SDS011;39886;47.984;-1.586;2023-04-01T05:56:47;2.38;;;1.02;;
53977;SDS011;39886;47.984;-1.586;2023-04-01T05:59:13;3.95;;;1.27;;
53977;SDS011;39886;47.984;-1.586;2023-04-01T06:01:39;1.58;;;0.98;;
53977;SDS011;39886;47.984;-1.586;2023-04-01T06:04:06;2.58;;;1.30;;
53977;SDS011;39886;47.984;-1.586;2023-04-01T06:06:32;3.00;;;1.42;;
53977;SDS011;39886;47.984;-1.586;2023-04-01T06:08:58;2.08;;;1.02;;
53977;SDS011;39886;47.984;-1.586;2023-04-01T06:11:41;3.63;;;1.35;;
53977;SDS011;39886;47.984;-1.586;2023-04-01T06:34:06;2.08;;;1.00;;
53977;SDS011;39886;47.984;-1.586;2023-04-01T06:42:45;3.45;;;1.17;;
53977;SDS011;39886;47.984;-1.586;2023-04-01T06:50:32;1.85;;;1.15;;
53977;SDS011;39886;47.984;-1.586;2023-04-01T06:53:16;1.97;;;0.93;;
53977;SDS011;39886;47.984;-1.586;2023-04-01T06:58:26;1.83;;;1.02;;
53977;SDS011;39886;47.984;-1.586;2023-04-01T07:00:57;2.75;;;1.20;;
53977;SDS011;39886;47.984;-1.586;2023-04-01T07:03:32;2.95;;;1.23;;
53977;SDS011;39886;47.984;-1.586;2023-04-01T07:06:06;2.88;;;1.00;;
53977;SDS011;39886;47.984;-1.586;2023-04-01T07:11:22;1.85;;;1.17;;
53977;SDS011;39886;47.984;-1.586;2023-04-01T07:14:35;2.45;;;1.38;;
53977;SDS011;39886;47.984;-1.586;2023-04-01T07:16:45;1.73;;;0.90;;
53977;SDS011;39886;47.984;-1.586;2023-04-01T07:19:32;1.75;;;0.98;;
53977;SDS011;39886;47.984;-1.586;2023-04-01T07:25:14;2.05;;;0.95;;
53977;SDS011;39886;47.984;-1.586;2023-04-01T07:28:05;2.53;;;1.25;;
53977;SDS011;39886;47.984;-1.586;2023-04-01T07:30:43;3.58;;;1.15;;
53977;SDS011;39886;47.984;-1.586;2023-04-01T07:33:39;1.88;;;1.00;;
53977;SDS011;39886;47.984;-1.586;2023-04-01T07:39:11;2.27;;;0.93;;
53977;SDS011;39886;47.984;-1.586;2023-04-01T07:41:42;1.65;;;1.00;;
53977;SDS011;39886;47.984;-1.586;2023-04-01T07:52:59;2.03;;;1.00;;
53977;SDS011;39886;47.984;-1.586;2023-04-01T07:55:34;3.70;;;1.00;;
53977;SDS011;39886;47.984;-1.586;2023-04-01T07:58:17;2.80;;;0.93;;
53977;SDS011;39886;47.984;-1.586;2023-04-01T08:00:49;1.40;;;0.85;;
53977;SDS011;39886;47.984;-1.586;2023-04-01T08:12:11;2.72;;;1.23;;
53977;SDS011;39886;47.984;-1.586;2023-04-01T08:15:08;3.53;;;1.35;;
53977;SDS011;39886;47.984;-1.586;2023-04-01T08:20:28;1.85;;;1.02;;
53977;SDS011;39886;47.984;-1.586;2023-04-01T08:23:05;3.05;;;1.10;;
53977;SDS011;39886;47.984;-1.586;2023-04-01T08:25:35;1.67;;;0.80;;
53977;SDS011;39886;47.984;-1.586;2023-04-01T08:33:24;2.15;;;1.10;;
53977;SDS011;39886;47.984;-1.586;2023-04-01T08:36:12;1.73;;;0.90;;
53977;SDS011;39886;47.984;-1.586;2023-04-01T08:38:59;3.50;;;1.17;;
53977;SDS011;39886;47.984;-1.586;2023-04-01T08:52:29;2.40;;;0.90;;
53977;SDS011;39886;47.984;-1.586;2023-04-01T08:55:47;2.10;;;1.00;;
53977;SDS011;39886;47.984;-1.586;2023-04-01T09:00:54;1.25;;;0.90;;
53977;SDS011;39886;47.984;-1.586;2023-04-01T09:03:41;2.33;;;1.00;;
53977;SDS011;39886;47.984;-1.586;2023-04-01T09:08:46;1.70;;;0.90;;
53977;SDS011;39886;47.984;-1.586;2023-04-01T09:19:54;2.25;;;1.08;;
53977;SDS011;39886;47.984;-1.586;2023-04-01T09:31:20;3.47;;;1.10;;
53977;SDS011;39886;47.984;-1.586;2023-04-01T09:37:35;2.55;;;1.00;;
53977;SDS011;39886;47.984;-1.586;2023-04-01T09:43:16;1.88;;;0.98;;
53977;SDS011;39886;47.984;-1.586;2023-04-01T09:51:42;1.98;;;1.02;;
53977;SDS011;39886;47.984;-1.586;2023-04-01T10:05:01;1.85;;;1.00;;
53977;SDS011;39886;47.984;-1.586;2023-04-01T10:16:46;1.95;;;1.10;;
53977;SDS011;39886;47.984;-1.586;2023-04-01T10:22:38;3.13;;;0.85;;
53977;SDS011;39886;47.984;-1.586;2023-04-01T10:30:37;1.88;;;0.88;;
53977;SDS011;39886;47.984;-1.586;2023-04-01T11:03:44;2.03;;;0.82;;
53977;SDS011;39886;47.984;-1.586;2023-04-01T11:06:25;1.63;;;0.90;;
53977;SDS011;39886;47.984;-1.586;2023-04-01T11:15:15;1.25;;;0.80;;
53977;SDS011;39886;47.984;-1.586;2023-04-01T11:20:51;1.00;;;0.88;;
53977;SDS011;39886;47.984;-1.586;2023-04-01T11:42:39;3.03;;;0.90;;
53977;SDS011;39886;47.984;-1.586;2023-04-01T11:45:27;1.08;;;0.98;;
53977;SDS011;39886;47.984;-1.586;2023-04-01T11:51:04;1.92;;;0.95;;
53977;SDS011;39886;47.984;-1.586;2023-04-01T11:57:30;2.40;;;0.90;;
53977;SDS011;39886;47.984;-1.586;2023-04-01T12:05:28;1.20;;;0.95;;
53977;SDS011;39886;47.984;-1.586;2023-04-01T12:10:36;2.75;;;0.98;;
53977;SDS011;39886;47.984;-1.586;2023-04-01T12:21:27;1.05;;;0.85;;
53977;SDS011;39886;47.984;-1.586;2023-04-01T12:30:26;1.13;;;0.80;;
53977;SDS011;39886;47.984;-1.586;2023-04-01T12:35:46;1.95;;;0.80;;
53977;SDS011;39886;47.984;-1.586;2023-04-01T12:41:14;1.30;;;0.70;;
53977;SDS011;39886;47.984;-1.586;2023-04-01T12:54:16;1.40;;;0.82;;
53977;SDS011;39886;47.984;-1.586;2023-04-01T12:56:47;1.10;;;0.80;;
53977;SDS011;39886;47.984;-1.586;2023-04-01T13:16:37;1.92;;;0.90;;
53977;SDS011;39886;47.984;-1.586;2023-04-01T13:19:16;1.00;;;0.60;;
53977;SDS011;39886;47.984;-1.586;2023-04-01T13:22:09;1.67;;;0.90;;
53977;SDS011;39886;47.984;-1.586;2023-04-01T13:25:03;1.13;;;0.80;;
53977;SDS011;39886;47.984;-1.586;2023-04-01T13:27:41;2.38;;;0.90;;
53977;SDS011;39886;47.984;-1.586;2023-04-01T13:54:58;1.45;;;0.80;;
53977;SDS011;39886;47.984;-1.586;2023-04-01T14:06:02;2.25;;;0.90;;
53977;SDS011;39886;47.984;-1.586;2023-04-01T14:27:54;1.42;;;0.80;;
53977;SDS011;39886;47.984;-1.586;2023-04-01T14:37:00;1.20;;;0.60;;
53977;SDS011;39886;47.984;-1.586;2023-04-01T14:42:45;1.48;;;0.90;;
53977;SDS011;39886;47.984;-1.586;2023-04-01T14:50:45;2.25;;;0.80;;
53977;SDS011;39886;47.984;-1.586;2023-04-01T14:53:28;1.25;;;0.82;;
53977;SDS011;39886;47.984;-1.586;2023-04-01T14:55:58;3.03;;;0.95;;
53977;SDS011;39886;47.984;-1.586;2023-04-01T14:58:47;1.48;;;0.65;;
53977;SDS011;39886;47.984;-1.586;2023-04-01T15:15:34;2.15;;;1.15;;
53977;SDS011;39886;47.984;-1.586;2023-04-01T15:23:52;0.80;;;0.70;;
53977;SDS011;39886;47.984;-1.586;2023-04-01T15:31:46;5.80;;;0.90;;
53977;SDS011;39886;47.984;-1.586;2023-04-01T15:34:47;2.22;;;0.80;;
53977;SDS011;39886;47.984;-1.586;2023-04-01T15:54:23;2.10;;;0.95;;
53977;SDS011;39886;47.984;-1.586;2023-04-01T15:56:55;1.10;;;0.70;;
53977;SDS011;39886;47.984;-1.586;2023-04-01T16:13:03;1.95;;;1.00;;
53977;SDS011;39886;47.984;-1.586;2023-04-01T16:15:47;1.80;;;0.75;;
53977;SDS011;39886;47.984;-1.586;2023-04-01T16:21:04;2.33;;;1.00;;
53977;SDS011;39886;47.984;-1.586;2023-04-01T16:23:42;1.63;;;1.00;;
53977;SDS011;39886;47.984;-1.586;2023-04-01T16:26:18;1.40;;;0.80;;
53977;SDS011;39886;47.984;-1.586;2023-04-01T16:32:38;1.08;;;0.73;;
53977;SDS011;39886;47.984;-1.586;2023-04-01T16:34:56;2.33;;;0.82;;
53977;SDS011;39886;47.984;-1.586;2023-04-01T16:37:52;3.05;;;1.00;;
53977;SDS011;39886;47.984;-1.586;2023-04-01T16:49:04;1.17;;;0.90;;
53977;SDS011;39886;47.984;-1.586;2023-04-01T16:51:52;1.60;;;0.90;;
53977;SDS011;39886;47.984;-1.586;2023-04-01T16:56:50;3.42;;;1.05;;
53977;SDS011;39886;47.984;-1.586;2023-04-01T17:03:25;2.22;;;0.75;;
53977;SDS011;39886;47.984;-1.586;2023-04-01T17:08:22;1.40;;;0.70;;
53977;SDS011;39886;47.984;-1.586;2023-04-01T17:11:17;1.38;;;0.70;;
53977;SDS011;39886;47.984;-1.586;2023-04-01T17:27:34;2.42;;;1.00;;
53977;SDS011;39886;47.984;-1.586;2023-04-01T17:35:35;2.13;;;1.00;;
53977;SDS011;39886;47.984;-1.586;2023-04-01T17:41:07;1.08;;;0.80;;
53977;SDS011;39886;47.984;-1.586;2023-04-01T17:49:28;1.20;;;0.93;;
53977;SDS011;39886;47.984;-1.586;2023-04-01T17:52:24;1.30;;;0.80;;
53977;SDS011;39886;47.984;-1.586;2023-04-01T17:55:25;1.00;;;0.80;;
53977;SDS011;39886;47.984;-1.586;2023-04-01T17:58:20;0.73;;;0.70;;
53977;SDS011;39886;47.984;-1.586;2023-04-01T18:01:16;1.73;;;0.90;;
53977;SDS011;39886;47.984;-1.586;2023-04-01T18:04:10;1.45;;;0.65;;
53977;SDS011;39886;47.984;-1.586;2023-04-01T18:11:36;2.30;;;0.90;;
53977;SDS011;39886;47.984;-1.586;2023-04-01T18:14:21;2.05;;;0.90;;
53977;SDS011;39886;47.984;-1.586;2023-04-01T18:20:11;1.17;;;0.70;;
53977;SDS011;39886;47.984;-1.586;2023-04-01T18:23:00;1.90;;;0.97;;
53977;SDS011;39886;47.984;-1.586;2023-04-01T18:25:44;1.33;;;0.98;;
53977;SDS011;39886;47.984;-1.586;2023-04-01T18:36:18;2.30;;;0.82;;
53977;SDS011;39886;47.984;-1.586;2023-04-01T18:39:11;1.33;;;0.80;;
53977;SDS011;39886;47.984;-1.586;2023-04-01T18:44:53;1.55;;;0.88;;
53977;SDS011;39886;47.984;-1.586;2023-04-01T18:47:29;1.25;;;0.77;;
53977;SDS011;39886;47.984;-1.586;2023-04-01T18:50:18;1.53;;;0.77;;
53977;SDS011;39886;47.984;-1.586;2023-04-01T18:53:10;2.00;;;0.80;;
53977;SDS011;39886;47.984;-1.586;2023-04-01T18:55:59;1.65;;;0.90;;
53977;SDS011;39886;47.984;-1.586;2023-04-01T18:58:31;0.75;;;0.60;;
53977;SDS011;39886;47.984;-1.586;2023-04-01T19:01:07;1.15;;;0.60;;
53977;SDS011;39886;47.984;-1.586;2023-04-01T19:03:57;1.35;;;0.90;;
53977;SDS011;39886;47.984;-1.586;2023-04-01T19:20:03;1.25;;;0.80;;
53977;SDS011;39886;47.984;-1.586;2023-04-01T19:23:09;1.08;;;0.90;;
53977;SDS011;39886;47.984;-1.586;2023-04-01T19:25:54;1.33;;;0.80;;
53977;SDS011;39886;47.984;-1.586;2023-04-01T19:30:57;1.08;;;0.80;;
53977;SDS011;39886;47.984;-1.586;2023-04-01T19:36:29;1.77;;;0.57;;
53977;SDS011;39886;47.984;-1.586;2023-04-01T19:39:07;1.13;;;0.60;;
53977;SDS011;39886;47.984;-1.586;2023-04-01T19:56:23;1.63;;;0.80;;
53977;SDS011;39886;47.984;-1.586;2023-04-01T19:58:58;1.92;;;1.02;;
53977;SDS011;39886;47.984;-1.586;2023-04-01T20:01:50;2.08;;;0.80;;
53977;SDS011;39886;47.984;-1.586;2023-04-01T20:04:57;1.27;;;0.73;;
53977;SDS011;39886;47.984;-1.586;2023-04-01T20:07:36;2.28;;;0.93;;
53977;SDS011;39886;47.984;-1.586;2023-04-01T20:13:03;1.48;;;0.80;;
53977;SDS011;39886;47.984;-1.586;2023-04-01T20:16:02;1.00;;;0.70;;
53977;SDS011;39886;47.984;-1.586;2023-04-01T20:21:03;1.20;;;0.77;;
53977;SDS011;39886;47.984;-1.586;2023-04-01T20:26:13;1.67;;;0.77;;
53977;SDS011;39886;47.984;-1.586;2023-04-01T20:28:45;1.80;;;1.02;;
53977;SDS011;39886;47.984;-1.586;2023-04-01T20:31:23;1.60;;;0.75;;
53977;SDS011;39886;47.984;-1.586;2023-04-01T20:33:57;1.17;;;0.77;;
53977;SDS011;39886;47.984;-1.586;2023-04-01T20:42:34;1.35;;;0.73;;
53977;SDS011;39886;47.984;-1.586;2023-04-01T20:50:50;1.95;;;0.80;;
53977;SDS011;39886;47.984;-1.586;2023-04-01T20:54:05;0.70;;;0.63;;
53977;SDS011;39886;47.984;-1.586;2023-04-01T20:59:16;1.33;;;0.77;;
53977;SDS011;39886;47.984;-1.586;2023-04-01T21:15:48;1.48;;;0.63;;
53977;SDS011;39886;47.984;-1.586;2023-04-01T21:28:55;2.60;;;0.90;;
53977;SDS011;39886;47.984;-1.586;2023-04-01T21:34:37;0.60;;;0.60;;
53977;SDS011;39886;47.984;-1.586;2023-04-01T21:54:33;0.85;;;0.80;;
53977;SDS011;39886;47.984;-1.586;2023-04-01T21:57:22;1.35;;;0.70;;
53977;SDS011;39886;47.984;-1.586;2023-04-01T22:00:17;0.82;;;0.60;;
53977;SDS011;39886;47.984;-1.586;2023-04-01T22:05:27;1.90;;;0.80;;
53977;SDS011;39886;47.984;-1.586;2023-04-01T22:16:58;1.30;;;0.73;;
53977;SDS011;39886;47.984;-1.586;2023-04-01T22:20:01;1.42;;;0.80;;
53977;SDS011;39886;47.984;-1.586;2023-04-01T22:26:52;0.80;;;0.60;;
53977;SDS011;39886;47.984;-1.586;2023-04-01T22:29:23;1.27;;;0.70;;
53977;SDS011;39886;47.984;-1.586;2023-04-01T22:32:02;0.82;;;0.68;;
53977;SDS011;39886;47.984;-1.586;2023-04-01T22:37:19;1.33;;;0.70;;
53977;SDS011;39886;47.984;-1.586;2023-04-01T22:43:06;0.70;;;0.70;;
53977;SDS011;39886;47.984;-1.586;2023-04-01T22:45:47;1.73;;;1.00;;
53977;SDS011;39886;47.984;-1.586;2023-04-01T22:48:29;1.08;;;0.80;;
53977;SDS011;39886;47.984;-1.586;2023-04-01T22:59:48;1.75;;;0.73;;
53977;SDS011;39886;47.984;-1.586;2023-04-01T23:02:21;2.60;;;0.98;;
53977;SDS011;39886;47.984;-1.586;2023-04-01T23:04:54;0.60;;;0.60;;
53977;SDS011;39886;47.984;-1.586;2023-04-01T23:10:28;1.25;;;0.90;;
53977;SDS011;39886;47.984;-1.586;2023-04-01T23:13:09;2.15;;;0.70;;
53977;SDS011;39886;47.984;-1.586;2023-04-01T23:15:41;1.23;;;0.75;;
53977;SDS011;39886;47.984;-1.586;2023-04-01T23:23:53;0.70;;;0.63;;
53977;SDS011;39886;47.984;-1.586;2023-04-01T23:26:55;0.90;;;0.80;;
53977;SDS011;39886;47.984;-1.586;2023-04-01T23:29:36;2.07;;;1.00;;
53977;SDS011;39886;47.984;-1.586;2023-04-01T23:32:22;2.05;;;1.02;;
53977;SDS011;39886;47.984;-1.586;2023-04-01T23:37:24;1.27;;;0.75;;
53977;SDS011;39886;47.984;-1.586;2023-04-01T23:39:52;0.88;;;0.70;;
53977;SDS011;39886;47.984;-1.586;2023-04-01T23:42:27;1.33;;;0.77;;
53977;SDS011;39886;47.984;-1.586;2023-04-01T23:45:16;1.08;;;0.75;;
53977;SDS011;39886;47.984;-1.586;2023-04-01T23:47:45;0.75;;;0.70;;
53977;SDS011;39886;47.984;-1.586;2023-04-01T23:50:16;0.85;;;0.60;;
53977;SDS011;39886;47.984;-1.586;2023-04-01T23:53:01;2.40;;;0.90;;
53977;SDS011;39886;47.984;-1.586;2023-04-01T23:55:33;1.67;;;0.80;;
53977;SDS011;39886;47.984;-1.586;2023-04-01T23:58:00;2.08;;;0.80;;
